createdAt,value
2022-10-11T00:00:13.709Z,2.40
2022-10-11T00:02:54.124Z,2.83
2022-10-11T00:05:34.821Z,2.83
2022-10-11T00:08:15.630Z,3.08
2022-10-11T00:11:04.002Z,2.20
2022-10-11T00:13:46.605Z,2.80
2022-10-11T00:16:26.884Z,3.30
2022-10-11T00:19:06.347Z,2.90
2022-10-11T00:21:46.490Z,2.90
2022-10-11T00:24:27.190Z,2.95
2022-10-11T00:27:07.444Z,3.88
2022-10-11T00:29:48.414Z,2.25
2022-10-11T00:32:29.078Z,3.65
2022-10-11T00:35:09.961Z,2.83
2022-10-11T00:37:51.208Z,2.90
2022-10-11T00:40:32.526Z,2.65
2022-10-11T00:43:20.026Z,2.60
2022-10-11T00:46:04.466Z,2.85
2022-10-11T00:49:03.510Z,2.65
2022-10-11T00:51:49.697Z,2.90
2022-10-11T00:54:34.160Z,3.03
2022-10-11T00:57:22.012Z,2.60
2022-10-11T01:00:03.109Z,3.58
2022-10-11T01:02:47.410Z,2.90
2022-10-11T01:05:30.108Z,2.65
2022-10-11T01:08:11.641Z,2.42
2022-10-11T01:10:53.814Z,2.50
2022-10-11T01:14:15.770Z,2.92
2022-10-11T01:17:20.158Z,2.83
2022-10-11T01:20:19.205Z,2.67
2022-10-11T01:23:28.243Z,2.42
2022-10-11T01:26:20.460Z,2.88
2022-10-11T01:29:19.946Z,2.72
2022-10-11T01:32:15.309Z,2.75
2022-10-11T01:34:56.770Z,2.67
2022-10-11T01:37:42.565Z,2.78
2022-10-11T01:40:29.381Z,2.38
2022-10-11T01:43:10.437Z,2.80
2022-10-11T01:45:54.202Z,3.13
2022-10-11T01:48:34.142Z,2.97
2022-10-11T01:51:14.225Z,3.03
2022-10-11T01:54:11.097Z,3.17
2022-10-11T01:57:00.352Z,3.05
2022-10-11T01:59:53.054Z,2.95
2022-10-11T02:03:12.032Z,2.50
2022-10-11T02:06:12.465Z,3.25
2022-10-11T02:09:30.596Z,3.15
2022-10-11T02:12:15.971Z,2.65
2022-10-11T02:14:58.447Z,2.90
2022-10-11T02:17:49.488Z,2.83
2022-10-11T02:20:34.156Z,2.60
2022-10-11T02:23:17.256Z,2.55
2022-10-11T02:25:58.331Z,2.95
2022-10-11T02:28:42.624Z,2.83
2022-10-11T02:31:23.652Z,4.40
2022-10-11T02:34:37.904Z,3.88
2022-10-11T02:37:31.832Z,3.33
2022-10-11T02:40:33.527Z,3.50
2022-10-11T02:43:25.187Z,3.10
2022-10-11T02:46:08.473Z,3.92
2022-10-11T02:48:50.812Z,4.32
2022-10-11T02:51:31.923Z,3.80
2022-10-11T02:54:12.070Z,3.22
2022-10-11T02:56:52.267Z,3.85
2022-10-11T02:59:33.584Z,4.18
2022-10-11T03:02:14.918Z,3.55
2022-10-11T03:04:56.031Z,3.72
2022-10-11T03:07:35.874Z,3.83
2022-10-11T03:10:15.933Z,3.55
2022-10-11T03:12:55.727Z,4.05
2022-10-11T03:15:36.896Z,3.70
2022-10-11T03:18:16.707Z,4.32
2022-10-11T03:20:56.352Z,3.70
2022-10-11T03:23:36.659Z,4.05
2022-10-11T03:26:17.672Z,3.65
2022-10-11T03:28:58.982Z,4.32
2022-10-11T03:31:39.703Z,4.68
2022-10-11T03:34:21.125Z,4.35
2022-10-11T03:37:02.018Z,4.10
2022-10-11T03:39:43.092Z,3.40
2022-10-11T03:42:22.850Z,3.80
2022-10-11T03:45:05.153Z,4.10
2022-10-11T03:47:45.684Z,4.20
2022-10-11T03:50:25.569Z,3.63
2022-10-11T03:53:08.897Z,3.90
2022-10-11T03:55:54.218Z,3.92
2022-10-11T03:58:34.641Z,3.97
2022-10-11T04:01:14.338Z,4.57
2022-10-11T04:03:57.766Z,3.70
2022-10-11T04:06:38.810Z,4.03
2022-10-11T04:09:18.468Z,5.57
2022-10-11T04:11:58.605Z,4.22
2022-10-11T04:14:38.032Z,4.22
2022-10-11T04:17:18.068Z,4.88
2022-10-11T04:19:58.095Z,5.05
2022-10-11T04:22:39.314Z,5.60
2022-10-11T04:25:18.904Z,4.53
2022-10-11T04:27:58.702Z,4.45
2022-10-11T04:30:38.550Z,3.78
2022-10-11T04:33:18.426Z,4.63
2022-10-11T04:35:58.524Z,4.38
2022-10-11T04:38:39.942Z,3.70
2022-10-11T04:41:20.943Z,4.25
2022-10-11T04:44:01.438Z,3.30
2022-10-11T04:46:42.502Z,3.85
2022-10-11T04:49:23.919Z,4.65
2022-10-11T04:52:05.046Z,4.00
2022-10-11T04:54:46.122Z,4.38
2022-10-11T04:57:26.169Z,3.92
2022-10-11T05:00:06.513Z,3.95
2022-10-11T05:02:53.201Z,4.03
2022-10-11T05:05:33.622Z,4.18
2022-10-11T05:08:14.510Z,4.45
2022-10-11T05:11:08.434Z,4.35
2022-10-11T05:13:49.055Z,4.05
2022-10-11T05:16:27.218Z,4.05
2022-10-11T05:19:06.418Z,4.18
2022-10-11T05:21:46.873Z,4.32
2022-10-11T05:24:26.608Z,4.22
2022-10-11T05:27:06.817Z,4.25
2022-10-11T05:29:48.363Z,3.10
2022-10-11T05:32:29.609Z,3.90
2022-10-11T05:35:10.664Z,3.20
2022-10-11T05:37:50.458Z,3.45
2022-10-11T05:40:30.152Z,3.53
2022-10-11T05:43:10.182Z,3.85
2022-10-11T05:45:48.201Z,3.80
2022-10-11T05:48:30.515Z,4.82
2022-10-11T05:51:12.130Z,4.80
2022-10-11T05:53:53.184Z,5.90
2022-10-11T05:56:33.949Z,5.28
2022-10-11T05:59:13.682Z,4.45
2022-10-11T06:01:57.507Z,4.13
2022-10-11T06:04:40.108Z,5.80
2022-10-11T06:07:21.071Z,5.50
2022-10-11T06:10:03.481Z,6.65
2022-10-11T06:12:44.094Z,4.95
2022-10-11T06:15:39.058Z,3.30
2022-10-11T06:18:39.156Z,3.28
2022-10-11T06:21:42.437Z,4.20
2022-10-11T06:24:38.545Z,4.40
2022-10-11T06:27:38.732Z,4.50
2022-10-11T06:30:50.327Z,3.75
2022-10-11T06:33:49.752Z,3.58
2022-10-11T06:36:56.735Z,3.55
2022-10-11T06:39:59.130Z,3.90
2022-10-11T06:42:56.843Z,4.05
2022-10-11T06:45:51.595Z,4.57
2022-10-11T06:48:49.128Z,6.22
2022-10-11T06:51:42.803Z,6.28
2022-10-11T06:54:44.772Z,4.82
2022-10-11T06:57:42.830Z,3.72
2022-10-11T07:00:45.754Z,6.53
2022-10-11T07:03:45.961Z,5.60
2022-10-11T07:06:41.330Z,5.00
2022-10-11T07:09:45.338Z,5.22
2022-10-11T07:12:45.523Z,5.88
2022-10-11T07:15:42.800Z,5.50
2022-10-11T07:18:41.602Z,5.65
2022-10-11T07:21:41.830Z,5.68
2022-10-11T07:24:40.946Z,5.47
2022-10-11T07:27:34.436Z,5.80
2022-10-11T07:30:50.195Z,4.50
2022-10-11T07:33:55.265Z,8.02
2022-10-11T07:36:58.617Z,6.95
2022-10-11T07:39:54.910Z,7.30
2022-10-11T07:42:48.210Z,6.70
2022-10-11T07:45:29.080Z,6.93
2022-10-11T07:48:37.458Z,7.38
2022-10-11T07:51:34.065Z,8.05
2022-10-11T07:54:32.908Z,7.22
2022-10-11T07:57:36.232Z,7.45
2022-10-11T08:00:53.768Z,7.00
2022-10-11T08:04:00.163Z,7.10
2022-10-11T08:06:54.813Z,6.38
2022-10-11T08:09:54.558Z,12.57
2022-10-11T08:12:54.122Z,7.55
2022-10-11T08:16:11.170Z,7.22
2022-10-11T08:19:09.896Z,5.72
2022-10-11T08:22:13.547Z,6.15
2022-10-11T08:25:11.567Z,5.43
2022-10-11T08:27:51.730Z,4.93
2022-10-11T08:30:57.970Z,5.03
2022-10-11T08:33:55.915Z,5.50
2022-10-11T08:36:53.777Z,4.82
2022-10-11T08:39:56.154Z,5.40
2022-10-11T08:42:51.117Z,4.50
2022-10-11T08:45:42.723Z,6.97
2022-10-11T08:48:15.143Z,4.25
2022-10-11T08:50:46.911Z,4.05
2022-10-11T08:53:48.409Z,4.40
2022-10-11T08:56:17.553Z,4.00
2022-10-11T08:58:54.116Z,5.03
2022-10-11T09:01:25.064Z,3.97
2022-10-11T09:03:53.223Z,4.13
2022-10-11T09:09:09.058Z,3.35
2022-10-11T09:12:18.970Z,2.55
2022-10-11T09:15:08.877Z,3.97
2022-10-11T09:18:09.790Z,3.33
2022-10-11T09:21:04.590Z,3.53
2022-10-11T09:24:00.237Z,3.15
2022-10-11T09:26:44.306Z,2.78
2022-10-11T09:29:33.350Z,3.92
2022-10-11T09:32:01.691Z,3.00
2022-10-11T09:34:35.344Z,3.30
2022-10-11T09:37:24.674Z,3.22
2022-10-11T09:40:18.515Z,3.70
2022-10-11T09:42:46.470Z,3.05
2022-10-11T09:45:20.028Z,2.05
2022-10-11T09:47:50.750Z,2.92
2022-10-11T09:50:26.215Z,2.00
2022-10-11T09:52:57.185Z,2.45
2022-10-11T09:55:43.419Z,2.30
2022-10-11T09:58:29.044Z,2.10
2022-10-11T10:01:11.685Z,2.25
2022-10-11T10:03:42.166Z,2.65
2022-10-11T10:06:32.821Z,2.55
2022-10-11T10:09:22.463Z,2.88
2022-10-11T10:11:50.600Z,2.72
2022-10-11T10:19:48.834Z,2.60
2022-10-11T10:22:27.384Z,2.97
2022-10-11T10:24:56.855Z,3.58
2022-10-11T10:27:27.558Z,4.03
2022-10-11T10:30:10.365Z,2.28
2022-10-11T10:33:04.137Z,2.58
2022-10-11T10:35:42.276Z,3.80
2022-10-11T10:38:35.286Z,3.10
2022-10-11T10:41:06.530Z,2.92
2022-10-11T10:43:37.619Z,2.78
2022-10-11T10:46:51.514Z,2.50
2022-10-11T10:49:53.136Z,2.30
2022-10-11T10:52:41.762Z,2.05
2022-10-11T10:55:18.355Z,2.40
2022-10-11T10:58:05.379Z,2.70
2022-10-11T11:00:58.267Z,2.28
2022-10-11T11:03:52.860Z,2.28
2022-10-11T11:06:36.602Z,2.20
2022-10-11T11:09:32.860Z,2.35
2022-10-11T11:12:20.606Z,2.78
2022-10-11T11:15:07.192Z,1.45
2022-10-11T11:17:34.901Z,2.35
2022-10-11T11:20:43.972Z,1.73
2022-10-11T11:23:35.843Z,1.48
2022-10-11T11:26:22.519Z,1.17
2022-10-11T11:29:18.027Z,1.30
2022-10-11T11:32:04.449Z,2.28
2022-10-11T11:34:40.748Z,1.83
2022-10-11T11:37:20.826Z,2.17
2022-10-11T11:39:51.644Z,1.45
2022-10-11T11:42:35.989Z,1.83
2022-10-11T11:45:15.376Z,2.17
2022-10-11T11:47:47.289Z,2.17
2022-10-11T11:50:23.012Z,2.72
2022-10-11T11:53:00.817Z,3.17
2022-10-11T11:55:30.698Z,2.78
2022-10-11T11:58:35.511Z,2.55
2022-10-11T12:01:31.306Z,2.63
2022-10-11T12:04:05.278Z,1.80
2022-10-11T12:06:37.904Z,1.63
2022-10-11T12:09:17.149Z,2.35
2022-10-11T12:12:02.279Z,2.50
2022-10-11T12:14:33.482Z,1.80
2022-10-11T12:17:12.180Z,1.92
2022-10-11T12:19:43.073Z,2.60
2022-10-11T12:22:18.425Z,2.30
2022-10-11T12:25:21.037Z,2.20
2022-10-11T12:27:54.405Z,1.80
2022-10-11T12:30:47.225Z,2.13
2022-10-11T12:33:45.444Z,1.42
2022-10-11T12:36:28.785Z,2.08
2022-10-11T12:39:20.905Z,2.22
2022-10-11T12:41:48.748Z,2.90
2022-10-11T12:44:19.245Z,2.50
2022-10-11T12:46:55.734Z,3.10
2022-10-11T12:49:48.511Z,1.50
2022-10-11T12:52:55.558Z,2.05
2022-10-11T12:55:46.061Z,2.03
2022-10-11T12:58:19.554Z,1.05
2022-10-11T13:00:55.643Z,2.38
2022-10-11T13:03:53.058Z,2.92
2022-10-11T13:06:26.823Z,2.67
2022-10-11T13:09:24.088Z,1.80
2022-10-11T13:12:14.692Z,2.05
2022-10-11T13:15:05.449Z,2.13
2022-10-11T13:17:38.434Z,2.13
2022-10-11T13:20:15.293Z,2.53
2022-10-11T13:22:44.299Z,2.15
2022-10-11T13:25:17.697Z,2.40
2022-10-11T13:27:46.345Z,2.25
2022-10-11T13:30:26.124Z,2.47
2022-10-11T13:32:54.265Z,2.83
2022-10-11T13:35:25.991Z,2.92
2022-10-11T13:37:53.712Z,1.92
2022-10-11T13:40:22.501Z,2.45
2022-10-11T13:42:52.213Z,3.97
2022-10-11T13:45:25.665Z,4.22
2022-10-11T13:47:54.936Z,3.42
2022-10-11T13:50:31.973Z,2.45
2022-10-11T13:53:24.169Z,2.25
2022-10-11T13:55:55.607Z,2.30
2022-10-11T13:58:46.390Z,2.10
2022-10-11T14:01:22.612Z,2.53
2022-10-11T14:04:00.114Z,3.83
2022-10-11T14:06:40.081Z,2.55
2022-10-11T14:09:20.280Z,3.67
2022-10-11T14:11:48.330Z,2.80
2022-10-11T14:17:10.462Z,2.20
2022-10-11T14:19:40.342Z,2.17
2022-10-11T14:22:14.849Z,2.47
2022-10-11T14:24:46.575Z,3.15
2022-10-11T14:27:19.364Z,2.53
2022-10-11T14:30:00.466Z,3.42
2022-10-11T14:32:35.159Z,2.20
2022-10-11T14:35:03.405Z,2.17
2022-10-11T14:37:31.407Z,3.50
2022-10-11T14:39:58.800Z,2.50
2022-10-11T14:42:26.341Z,3.15
2022-10-11T14:44:53.836Z,2.75
2022-10-11T14:47:21.850Z,2.10
2022-10-11T14:49:49.670Z,2.53
2022-10-11T14:52:17.212Z,2.10
2022-10-11T14:54:44.746Z,2.53
2022-10-11T14:57:13.160Z,2.42
2022-10-11T14:59:40.810Z,2.40
2022-10-11T15:02:11.220Z,2.35
2022-10-11T15:04:38.972Z,2.17
2022-10-11T15:07:06.656Z,2.45
2022-10-11T15:09:34.247Z,2.30
2022-10-11T15:12:02.215Z,2.08
2022-10-11T15:14:30.085Z,2.60
2022-10-11T15:16:57.645Z,2.50
2022-10-11T15:19:25.734Z,2.92
2022-10-11T15:24:21.237Z,2.30
2022-10-11T15:26:49.583Z,2.92
2022-10-11T15:29:18.199Z,3.13
2022-10-11T15:31:46.605Z,2.85
2022-10-11T15:34:14.460Z,2.05
2022-10-11T15:36:42.111Z,2.22
2022-10-11T15:39:31.966Z,2.20
2022-10-11T15:42:00.332Z,2.47
2022-10-11T15:44:27.910Z,3.42
2022-10-11T15:46:55.505Z,1.90
2022-10-11T15:49:23.612Z,2.63
2022-10-11T15:51:51.107Z,2.35
2022-10-11T15:54:18.747Z,2.80
2022-10-11T15:56:46.487Z,2.38
2022-10-11T15:59:14.014Z,2.10
2022-10-11T16:01:41.722Z,2.00
2022-10-11T16:04:09.721Z,1.95
2022-10-11T16:09:05.062Z,1.80
2022-10-11T16:14:00.509Z,2.15
2022-10-11T16:18:56.152Z,2.08
2022-10-11T16:21:24.220Z,2.40
2022-10-11T16:23:51.891Z,2.38
2022-10-11T16:26:19.885Z,1.83
2022-10-11T16:28:48.243Z,2.47
2022-10-11T16:31:20.598Z,2.33
2022-10-11T16:33:48.858Z,2.45
2022-10-11T16:36:32.054Z,2.45
2022-10-11T16:39:01.459Z,2.10
2022-10-11T16:41:29.027Z,2.72
2022-10-11T16:43:56.694Z,2.63
2022-10-11T16:46:24.307Z,2.40
2022-10-11T16:48:55.931Z,3.00
2022-10-11T16:51:24.382Z,2.30
2022-10-11T16:53:53.317Z,2.47
2022-10-11T16:56:22.684Z,2.60
2022-10-11T16:58:54.189Z,2.60
2022-10-11T17:01:22.467Z,2.95
2022-10-11T17:03:50.918Z,2.72
2022-10-11T17:06:19.897Z,2.42
2022-10-11T17:08:47.785Z,3.15
2022-10-11T17:11:17.570Z,2.65
2022-10-11T17:13:45.937Z,3.13
2022-10-11T17:16:14.075Z,2.95
2022-10-11T17:21:12.577Z,3.10
2022-10-11T17:23:40.230Z,2.92
2022-10-11T17:26:11.541Z,3.33
2022-10-11T17:28:39.527Z,6.60
2022-10-11T17:31:08.559Z,6.15
2022-10-11T17:33:36.771Z,6.00
2022-10-11T17:36:14.623Z,5.15
2022-10-11T17:38:42.551Z,3.97
2022-10-11T17:41:10.611Z,4.40
2022-10-11T17:46:06.706Z,3.88
2022-10-11T17:48:36.916Z,3.60
2022-10-11T17:51:09.583Z,3.60
2022-10-11T17:53:37.723Z,3.67
2022-10-11T17:56:13.624Z,3.03
2022-10-11T17:58:41.889Z,3.10
2022-10-11T18:01:13.164Z,4.85
2022-10-11T18:03:41.485Z,4.05
2022-10-11T18:06:12.583Z,4.57
2022-10-11T18:08:41.064Z,6.10
2022-10-11T18:11:14.383Z,4.75
2022-10-11T18:13:46.024Z,6.22
2022-10-11T18:16:15.541Z,6.90
2022-10-11T18:18:43.987Z,8.10
2022-10-11T18:21:11.966Z,7.43
2022-10-11T18:23:40.319Z,7.65
2022-10-11T18:26:13.595Z,7.00
2022-10-11T18:28:42.531Z,6.35
2022-10-11T18:31:16.107Z,7.03
2022-10-11T18:33:46.023Z,6.55
2022-10-11T18:36:16.457Z,5.80
2022-10-11T18:38:47.218Z,6.75
2022-10-11T18:41:20.765Z,5.78
2022-10-11T18:43:53.803Z,5.47
2022-10-11T18:46:22.654Z,5.82
2022-10-11T18:48:53.130Z,6.03
2022-10-11T18:51:26.602Z,5.15
2022-10-11T18:53:55.592Z,5.60
2022-10-11T18:56:24.806Z,5.85
2022-10-11T18:58:53.375Z,5.82
2022-10-11T19:01:23.943Z,5.75
2022-10-11T19:03:54.259Z,5.25
2022-10-11T19:06:25.270Z,5.10
2022-10-11T19:08:55.735Z,5.97
2022-10-11T19:11:25.438Z,5.85
2022-10-11T19:14:07.381Z,5.97
2022-10-11T19:16:39.791Z,7.32
2022-10-11T19:19:08.739Z,6.38
2022-10-11T19:21:36.873Z,6.38
2022-10-11T19:24:05.314Z,7.28
2022-10-11T19:29:02.551Z,7.75
2022-10-11T19:31:31.926Z,7.43
2022-10-11T19:33:59.971Z,7.20
2022-10-11T19:36:30.488Z,7.03
2022-10-11T19:39:01.715Z,6.60
2022-10-11T19:41:29.340Z,7.45
2022-10-11T19:44:00.083Z,8.20
2022-10-11T19:46:49.992Z,9.73
2022-10-11T19:49:17.430Z,7.55
2022-10-11T19:51:45.235Z,6.97
2022-10-11T19:54:15.055Z,6.82
2022-10-11T19:56:43.667Z,7.07
2022-10-11T19:59:12.617Z,8.02
2022-10-11T20:01:41.290Z,7.53
2022-10-11T20:04:22.938Z,6.72
2022-10-11T20:06:59.417Z,6.20
2022-10-11T20:09:30.026Z,7.43
2022-10-11T20:11:58.914Z,6.90
2022-10-11T20:14:26.911Z,6.85
2022-10-11T20:16:54.414Z,7.47
2022-10-11T20:19:27.779Z,10.55
2022-10-11T20:21:58.419Z,10.02
2022-10-11T20:24:29.125Z,10.60
2022-10-11T20:26:57.112Z,10.02
2022-10-11T20:29:26.188Z,10.30
2022-10-11T20:31:53.935Z,10.63
2022-10-11T20:34:21.563Z,8.05
2022-10-11T20:36:50.813Z,5.97
2022-10-11T20:39:18.704Z,6.28
2022-10-11T20:41:46.300Z,4.75
2022-10-11T20:44:16.296Z,3.90
2022-10-11T20:47:05.492Z,4.32
2022-10-11T20:49:33.144Z,4.05
2022-10-11T20:52:00.657Z,3.60
2022-10-11T20:54:29.801Z,2.80
2022-10-11T20:56:57.742Z,3.55
2022-10-11T20:59:25.327Z,3.30
2022-10-11T21:01:52.940Z,3.10
2022-10-11T21:04:20.976Z,3.33
2022-10-11T21:06:48.995Z,3.00
2022-10-11T21:09:17.327Z,2.90
2022-10-11T21:11:45.826Z,3.63
2022-10-11T21:14:13.912Z,3.58
2022-10-11T21:16:42.131Z,2.90
2022-10-11T21:19:13.035Z,3.40
2022-10-11T21:21:40.884Z,3.10
2022-10-11T21:24:08.893Z,3.50
2022-10-11T21:26:36.475Z,3.75
2022-10-11T21:29:05.779Z,3.50
2022-10-11T21:31:34.548Z,3.38
2022-10-11T21:34:03.271Z,3.42
2022-10-11T21:36:31.318Z,3.50
2022-10-11T21:38:59.186Z,3.53
2022-10-11T21:41:29.145Z,3.63
2022-10-11T21:43:57.335Z,3.85
2022-10-11T21:49:13.976Z,5.35
2022-10-11T21:51:41.887Z,4.47
2022-10-11T21:54:09.914Z,4.03
2022-10-11T21:56:37.340Z,3.80
2022-10-11T21:59:07.896Z,4.22
2022-10-11T22:01:39.985Z,3.08
2022-10-11T22:04:08.096Z,3.67
2022-10-11T22:06:36.281Z,4.43
2022-10-11T22:11:32.328Z,3.80
2022-10-11T22:16:31.836Z,4.85
2022-10-11T22:19:00.093Z,5.88
2022-10-11T22:23:55.342Z,4.10
2022-10-11T22:26:25.443Z,5.03
2022-10-11T22:28:53.488Z,5.25
2022-10-11T22:33:53.137Z,5.45
2022-10-11T22:36:21.097Z,4.85
2022-10-11T22:38:48.562Z,5.70
2022-10-11T22:41:16.589Z,5.75
2022-10-11T22:43:44.038Z,6.00
2022-10-11T22:46:11.848Z,6.22
2022-10-11T22:48:39.420Z,6.47
2022-10-11T22:51:07.447Z,6.07
2022-10-11T22:53:34.941Z,5.85
2022-10-11T22:56:02.562Z,5.95
2022-10-11T22:58:30.515Z,5.93
2022-10-11T23:00:57.938Z,5.85
2022-10-11T23:03:25.528Z,6.60
2022-10-11T23:05:57.317Z,5.50
2022-10-11T23:08:25.749Z,5.63
2022-10-11T23:10:53.587Z,5.15
2022-10-11T23:13:21.835Z,5.40
2022-10-11T23:15:49.444Z,4.78
2022-10-11T23:18:17.110Z,5.57
2022-10-11T23:20:45.075Z,5.28
2022-10-11T23:23:12.643Z,5.72
2022-10-11T23:25:40.191Z,5.70
2022-10-11T23:28:08.628Z,5.45
2022-10-11T23:30:39.238Z,5.78
2022-10-11T23:33:07.128Z,4.78
2022-10-11T23:35:35.402Z,4.63
2022-10-11T23:38:03.406Z,4.38
2022-10-11T23:40:30.816Z,4.90
2022-10-11T23:42:58.841Z,5.03
2022-10-11T23:45:26.566Z,5.45
2022-10-11T23:47:54.471Z,4.82
2022-10-11T23:50:21.930Z,4.78
2022-10-11T23:52:49.464Z,4.68
2022-10-11T23:55:17.064Z,5.65
2022-10-11T23:57:44.817Z,5.30
